createdAt,value
2022-11-27T00:00:19.998Z,6.6
2022-11-27T00:01:20.979Z,6.6
2022-11-27T00:02:22.048Z,6.7
2022-11-27T00:03:23.051Z,6.7
2022-11-27T00:04:24.002Z,6.7
2022-11-27T00:05:25.009Z,6.7
2022-11-27T00:06:26.026Z,6.8
2022-11-27T00:07:27.137Z,6.8
2022-11-27T00:08:28.982Z,6.9
2022-11-27T00:09:30.940Z,7
2022-11-27T00:10:32.957Z,6.9
2022-11-27T00:11:34.979Z,6.9
2022-11-27T00:12:37.001Z,6.7
2022-11-27T00:13:37.939Z,6.5
2022-11-27T00:14:39.065Z,6.4
2022-11-27T00:15:40.103Z,6.5
2022-11-27T00:16:41.040Z,6.5
2022-11-27T00:17:41.959Z,6.6
2022-11-27T00:18:42.980Z,6.7
2022-11-27T00:19:44.990Z,6.7
2022-11-27T00:20:46.986Z,6.7
2022-11-27T00:21:48.001Z,6.7
2022-11-27T00:22:48.999Z,6.8
2022-11-27T00:23:51.020Z,6.8
2022-11-27T00:24:53.044Z,6.8
2022-11-27T00:25:54.998Z,6.8
2022-11-27T00:26:56.001Z,6.8
2022-11-27T00:27:56.920Z,6.8
2022-11-27T00:28:57.981Z,6.8
2022-11-27T00:29:59.943Z,6.9
2022-11-27T00:31:02.015Z,6.9
2022-11-27T00:32:04.299Z,6.9
2022-11-27T00:33:06.022Z,6.9
2022-11-27T00:34:07.958Z,6.9
2022-11-27T00:35:10.021Z,6.8
2022-11-27T00:36:12.024Z,6.7
2022-11-27T00:37:13.025Z,6.6
2022-11-27T00:38:15.001Z,6.7
2022-11-27T00:39:16.019Z,6.7
2022-11-27T00:40:16.982Z,6.8
2022-11-27T00:41:17.999Z,6.8
2022-11-27T00:42:19.980Z,6.8
2022-11-27T00:43:21.021Z,6.8
2022-11-27T00:44:22.059Z,6.8
2022-11-27T00:45:24.058Z,6.9
2022-11-27T00:46:28.273Z,6.9
2022-11-27T00:47:26.499Z,6.9
2022-11-27T00:48:27.979Z,7
2022-11-27T00:49:29.999Z,6.9
2022-11-27T00:50:32.111Z,6.9
2022-11-27T00:51:33.989Z,6.7
2022-11-27T00:52:36.070Z,6.7
2022-11-27T00:53:37.999Z,6.5
2022-11-27T00:54:39.325Z,6.6
2022-11-27T00:55:39.956Z,6.6
2022-11-27T00:56:41.019Z,6.7
2022-11-27T00:57:42.103Z,6.8
2022-11-27T00:58:43.999Z,6.8
2022-11-27T00:59:46.000Z,7
2022-11-27T01:00:47.979Z,7
2022-11-27T01:01:50.052Z,7.1
2022-11-27T01:02:52.025Z,7.1
2022-11-27T01:03:53.978Z,7.1
2022-11-27T01:04:55.998Z,7.1
2022-11-27T01:05:56.979Z,7.1
2022-11-27T01:06:58.061Z,7
2022-11-27T01:07:59.988Z,7
2022-11-27T01:09:02.000Z,7
2022-11-27T01:10:03.039Z,6.9
2022-11-27T01:11:03.958Z,6.9
2022-11-27T01:12:05.007Z,6.9
2022-11-27T01:13:05.960Z,6.9
2022-11-27T01:14:07.026Z,6.9
2022-11-27T01:15:08.019Z,6.9
2022-11-27T01:16:09.045Z,6.9
2022-11-27T01:17:10.007Z,7
2022-11-27T01:18:10.960Z,7
2022-11-27T01:19:11.941Z,7.1
2022-11-27T01:20:13.019Z,7.1
2022-11-27T01:21:13.959Z,7.2
2022-11-27T01:22:15.004Z,7.1
2022-11-27T01:23:15.939Z,7.1
2022-11-27T01:24:17.024Z,7
2022-11-27T01:25:18.040Z,6.9
2022-11-27T01:26:18.985Z,6.8
2022-11-27T01:27:20.000Z,6.7
2022-11-27T01:28:20.999Z,6.7
2022-11-27T01:29:21.981Z,6.7
2022-11-27T01:30:23.003Z,6.6
2022-11-27T01:31:23.998Z,6.5
2022-11-27T01:32:24.999Z,6.5
2022-11-27T01:33:26.080Z,6.4
2022-11-27T01:34:27.243Z,6.3
2022-11-27T01:35:28.958Z,6
2022-11-27T01:36:30.985Z,5.7
2022-11-27T01:37:33.004Z,5.7
2022-11-27T01:38:35.019Z,5.8
2022-11-27T01:39:37.000Z,5.8
2022-11-27T01:40:38.119Z,6
2022-11-27T01:41:40.051Z,6.1
2022-11-27T01:42:40.981Z,6.2
2022-11-27T01:43:42.019Z,6.3
2022-11-27T01:44:42.999Z,6.3
2022-11-27T01:45:45.019Z,6.4
2022-11-27T01:46:47.023Z,6.4
2022-11-27T01:47:49.040Z,6.4
2022-11-27T01:48:50.979Z,6.4
2022-11-27T01:49:53.001Z,6.4
2022-11-27T01:50:54.000Z,6.4
2022-11-27T01:51:55.000Z,6.4
2022-11-27T01:52:56.076Z,6.4
2022-11-27T01:53:57.059Z,6.5
2022-11-27T01:54:59.419Z,6.6
2022-11-27T01:56:01.037Z,6.7
2022-11-27T01:57:02.981Z,6.8
2022-11-27T01:58:05.003Z,6.9
2022-11-27T01:59:07.018Z,6.9
2022-11-27T02:00:08.120Z,6.9
2022-11-27T02:01:09.979Z,6.9
2022-11-27T02:02:11.069Z,6.9
2022-11-27T02:03:12.120Z,6.9
2022-11-27T02:07:13.022Z,6.8
2022-11-27T02:08:15.065Z,6.8
2022-11-27T02:09:16.058Z,6.8
2022-11-27T02:10:17.039Z,6.6
2022-11-27T02:11:18.019Z,6.6
2022-11-27T02:12:19.998Z,6.6
2022-11-27T02:13:21.038Z,6.6
2022-11-27T02:14:23.207Z,6.7
2022-11-27T02:15:25.300Z,6.7
2022-11-27T02:16:27.503Z,6.7
2022-11-27T02:17:28.980Z,6.8
2022-11-27T02:18:30.983Z,6.8
2022-11-27T02:19:32.996Z,6.8
2022-11-27T02:20:35.039Z,6.8
2022-11-27T02:21:37.263Z,6.8
2022-11-27T02:22:39.458Z,6.9
2022-11-27T02:23:41.018Z,6.9
2022-11-27T02:24:42.207Z,6.9
2022-11-27T02:25:43.048Z,7
2022-11-27T02:26:44.039Z,7
2022-11-27T02:27:46.018Z,7
2022-11-27T02:28:48.038Z,7.1
2022-11-27T02:29:49.978Z,7.1
2022-11-27T02:30:52.125Z,7.1
2022-11-27T02:31:53.984Z,7.1
2022-11-27T02:32:55.022Z,7.1
2022-11-27T02:33:56.180Z,7.1
2022-11-27T02:34:58.082Z,7.1
2022-11-27T02:36:00.062Z,7.1
2022-11-27T02:37:02.026Z,7
2022-11-27T02:38:04.018Z,7
2022-11-27T02:39:06.039Z,7
2022-11-27T02:40:07.140Z,6.9
2022-11-27T02:41:09.078Z,6.9
2022-11-27T02:42:11.199Z,6.8
2022-11-27T02:43:12.060Z,6.7
2022-11-27T02:44:13.047Z,6.7
2022-11-27T02:45:14.078Z,6.7
2022-11-27T02:46:15.147Z,6.7
2022-11-27T02:47:17.058Z,6.8
2022-11-27T02:48:18.999Z,6.8
2022-11-27T02:49:21.018Z,6.9
2022-11-27T02:50:23.080Z,6.9
2022-11-27T02:51:24.100Z,7
2022-11-27T02:52:25.080Z,7
2022-11-27T02:53:26.060Z,7
2022-11-27T02:54:27.338Z,6.9
2022-11-27T02:55:29.041Z,6.9
2022-11-27T02:56:31.066Z,6.8
2022-11-27T02:57:33.158Z,6.8
2022-11-27T02:58:34.058Z,6.8
2022-11-27T02:59:36.000Z,6.8
2022-11-27T03:00:37.020Z,6.8
2022-11-27T03:01:38.136Z,6.8
2022-11-27T03:02:39.085Z,6.8
2022-11-27T03:03:40.077Z,6.8
2022-11-27T03:04:41.287Z,6.8
2022-11-27T03:05:42.059Z,6.8
2022-11-27T03:06:43.019Z,6.8
2022-11-27T03:07:44.127Z,6.8
2022-11-27T03:08:45.041Z,6.9
2022-11-27T03:09:46.019Z,6.9
2022-11-27T03:10:47.058Z,6.9
2022-11-27T03:11:48.122Z,6.9
2022-11-27T03:12:50.119Z,6.9
2022-11-27T03:13:52.081Z,6.9
2022-11-27T03:14:53.078Z,6.9
2022-11-27T03:15:54.130Z,6.8
2022-11-27T03:16:56.081Z,6.8
2022-11-27T03:17:57.058Z,6.9
2022-11-27T03:18:58.079Z,6.8
2022-11-27T03:19:59.079Z,6.8
2022-11-27T03:21:01.079Z,6.8
2022-11-27T03:22:03.359Z,6.9
2022-11-27T03:23:05.278Z,7
2022-11-27T03:24:07.041Z,6.9
2022-11-27T03:25:09.060Z,7
2022-11-27T03:26:10.247Z,6.9
2022-11-27T03:27:12.366Z,6.9
2022-11-27T03:28:14.181Z,6.8
2022-11-27T03:29:16.037Z,6.8
2022-11-27T03:30:18.102Z,6.8
2022-11-27T03:31:19.086Z,6.8
2022-11-27T03:32:20.085Z,6.8
2022-11-27T03:33:21.260Z,6.9
2022-11-27T03:34:23.080Z,6.9
2022-11-27T03:35:25.247Z,6.9
2022-11-27T03:36:27.618Z,6.9
2022-11-27T03:37:29.118Z,6.9
2022-11-27T03:38:31.144Z,7
2022-11-27T03:39:33.078Z,7
2022-11-27T03:40:35.139Z,7
2022-11-27T03:41:37.143Z,7
2022-11-27T03:42:39.082Z,7
2022-11-27T03:43:40.219Z,7
2022-11-27T03:44:42.240Z,7
2022-11-27T03:45:43.787Z,7
2022-11-27T03:46:45.131Z,6.9
2022-11-27T03:47:46.176Z,6.9
2022-11-27T03:48:47.181Z,6.9
2022-11-27T03:49:49.139Z,6.8
2022-11-27T03:50:50.099Z,6.8
2022-11-27T03:51:51.159Z,6.8
2022-11-27T03:52:53.087Z,6.8
2022-11-27T03:53:55.055Z,6.8
2022-11-27T03:54:56.099Z,6.7
2022-11-27T03:55:57.081Z,6.7
2022-11-27T03:56:58.118Z,6.7
2022-11-27T03:57:59.060Z,6.7
2022-11-27T03:59:00.201Z,6.7
2022-11-27T04:00:02.140Z,6.7
2022-11-27T04:01:04.063Z,6.7
2022-11-27T04:02:06.227Z,6.7
2022-11-27T04:03:08.104Z,6.7
2022-11-27T04:04:10.161Z,6.6
2022-11-27T04:05:12.066Z,6.6
2022-11-27T04:06:13.140Z,6.6
2022-11-27T04:07:15.188Z,6.6
2022-11-27T04:08:17.062Z,6.6
2022-11-27T04:09:19.079Z,6.7
2022-11-27T04:10:21.119Z,6.7
2022-11-27T04:11:23.088Z,6.8
2022-11-27T04:12:25.139Z,6.8
2022-11-27T04:13:26.080Z,6.8
2022-11-27T04:14:27.515Z,6.9
2022-11-27T04:15:29.180Z,6.9
2022-11-27T04:16:30.170Z,6.9
2022-11-27T04:17:32.138Z,6.9
2022-11-27T04:18:34.079Z,6.9
2022-11-27T04:19:36.060Z,7
2022-11-27T04:20:37.162Z,7
2022-11-27T04:21:38.099Z,7
2022-11-27T04:22:39.099Z,6.9
2022-11-27T04:23:40.079Z,6.8
2022-11-27T04:24:41.234Z,6.8
2022-11-27T04:25:42.239Z,6.8
2022-11-27T04:26:44.087Z,6.8
2022-11-27T04:27:46.078Z,6.8
2022-11-27T04:28:48.178Z,6.7
2022-11-27T04:29:50.379Z,6.7
2022-11-27T04:30:52.321Z,6.7
2022-11-27T04:31:54.113Z,6.6
2022-11-27T04:32:56.130Z,6.6
2022-11-27T04:33:57.109Z,6.6
2022-11-27T04:34:58.140Z,6.6
2022-11-27T04:35:59.213Z,6.6
2022-11-27T04:37:00.123Z,6.5
2022-11-27T04:38:01.179Z,6.5
2022-11-27T04:39:02.081Z,6.6
2022-11-27T04:40:03.179Z,6.7
2022-11-27T04:41:04.278Z,6.7
2022-11-27T04:42:06.099Z,6.7
2022-11-27T04:43:08.167Z,6.8
2022-11-27T04:44:10.140Z,6.8
2022-11-27T04:45:11.208Z,6.9
2022-11-27T04:46:12.232Z,6.9
2022-11-27T04:47:14.169Z,6.8
2022-11-27T04:48:16.118Z,6.8
2022-11-27T04:49:18.118Z,6.7
2022-11-27T04:50:20.060Z,6.6
2022-11-27T04:51:21.178Z,6.5
2022-11-27T04:52:22.159Z,6.5
2022-11-27T04:53:24.318Z,6.4
2022-11-27T04:54:26.334Z,6.3
2022-11-27T04:55:28.118Z,6.2
2022-11-27T04:56:30.091Z,6.3
2022-11-27T04:57:32.098Z,6.3
2022-11-27T04:58:34.119Z,6.4
2022-11-27T04:59:36.138Z,6.5
2022-11-27T05:00:37.222Z,6.6
2022-11-27T05:01:38.099Z,6.7
2022-11-27T05:02:39.160Z,6.7
2022-11-27T05:03:40.092Z,6.8
2022-11-27T05:04:41.309Z,6.8
2022-11-27T05:05:42.138Z,6.8
2022-11-27T05:06:43.078Z,6.9
2022-11-27T05:07:44.198Z,6.9
2022-11-27T05:08:46.149Z,6.9
2022-11-27T05:09:48.080Z,6.9
2022-11-27T05:10:49.159Z,7
2022-11-27T05:11:50.139Z,7
2022-11-27T05:12:51.118Z,7
2022-11-27T05:13:52.208Z,7
2022-11-27T05:14:53.107Z,7
2022-11-27T05:15:54.241Z,7
2022-11-27T05:16:55.095Z,7
2022-11-27T05:17:56.118Z,7.1
2022-11-27T05:18:57.159Z,7.1
2022-11-27T05:19:59.079Z,7.1
2022-11-27T05:21:00.095Z,7.1
2022-11-27T05:22:02.158Z,7.1
2022-11-27T05:23:04.159Z,7.1
2022-11-27T05:24:06.159Z,7.1
2022-11-27T05:25:07.079Z,7.1
2022-11-27T05:26:08.138Z,7.1
2022-11-27T05:27:09.112Z,7.1
2022-11-27T05:28:10.119Z,7.1
2022-11-27T05:29:11.118Z,7.1
2022-11-27T05:30:12.878Z,7
2022-11-27T05:31:14.327Z,6.9
2022-11-27T05:32:15.121Z,6.9
2022-11-27T05:33:17.139Z,6.9
2022-11-27T05:34:19.138Z,6.8
2022-11-27T05:35:20.092Z,6.7
2022-11-27T05:36:21.065Z,6.8
2022-11-27T05:37:22.078Z,6.7
2022-11-27T05:38:23.100Z,6.7
2022-11-27T05:39:24.189Z,6.7
2022-11-27T05:40:26.141Z,6.6
2022-11-27T05:41:27.500Z,6.5
2022-11-27T05:42:29.186Z,6.6
2022-11-27T05:43:31.118Z,6.6
2022-11-27T05:44:33.161Z,6.6
2022-11-27T05:45:35.157Z,6.7
2022-11-27T05:46:37.269Z,6.8
2022-11-27T05:47:39.158Z,6.8
2022-11-27T05:48:41.339Z,6.9
2022-11-27T05:49:43.519Z,6.9
2022-11-27T05:50:45.144Z,6.9
2022-11-27T05:51:50.912Z,6.9
2022-11-27T05:52:47.097Z,6.9
2022-11-27T05:53:48.118Z,7
2022-11-27T05:54:50.219Z,7
2022-11-27T05:55:51.238Z,6.9
2022-11-27T05:56:53.317Z,7
2022-11-27T05:57:55.138Z,7
2022-11-27T05:58:57.098Z,7
2022-11-27T05:59:58.119Z,7
2022-11-27T06:00:59.345Z,7
2022-11-27T06:02:01.426Z,7.1
2022-11-27T06:03:03.193Z,7.1
2022-11-27T06:04:05.184Z,7.2
2022-11-27T06:05:07.187Z,7.1
2022-11-27T06:06:09.160Z,7.1
2022-11-27T06:07:11.205Z,7
2022-11-27T06:08:12.118Z,6.9
2022-11-27T06:09:13.713Z,6.7
2022-11-27T06:10:14.100Z,6.7
2022-11-27T06:11:15.200Z,6.8
2022-11-27T06:12:17.838Z,6.8
2022-11-27T06:13:19.138Z,6.9
2022-11-27T06:14:20.127Z,6.9
2022-11-27T06:15:21.121Z,7
2022-11-27T06:16:23.267Z,7
2022-11-27T06:17:24.239Z,7
2022-11-27T06:18:26.139Z,7
2022-11-27T06:19:27.576Z,7
2022-11-27T06:20:29.125Z,7.1
2022-11-27T06:21:30.179Z,7.1
2022-11-27T06:22:32.158Z,7.1
2022-11-27T06:23:33.138Z,7.1
2022-11-27T06:24:34.118Z,7.2
2022-11-27T06:25:35.118Z,7.2
2022-11-27T06:26:36.157Z,7.2
2022-11-27T06:27:37.387Z,7.2
2022-11-27T06:28:39.218Z,7.2
2022-11-27T06:29:41.418Z,7.2
2022-11-27T06:30:43.138Z,7.2
2022-11-27T06:31:44.315Z,7.2
2022-11-27T06:32:45.243Z,7.2
2022-11-27T06:33:47.138Z,7.1
2022-11-27T06:34:49.181Z,7.1
2022-11-27T06:35:51.198Z,7
2022-11-27T06:36:53.238Z,7
2022-11-27T06:37:54.159Z,7.1
2022-11-27T06:38:55.218Z,7.1
2022-11-27T06:39:57.221Z,7.1
2022-11-27T06:40:58.159Z,7.1
2022-11-27T06:41:59.139Z,7.2
2022-11-27T06:43:00.177Z,7.2
2022-11-27T06:44:02.202Z,7.2
2022-11-27T06:45:03.378Z,7.2
2022-11-27T06:46:05.226Z,7.2
2022-11-27T06:47:07.158Z,7.2
2022-11-27T06:48:09.300Z,7.1
2022-11-27T06:49:11.239Z,7.1
2022-11-27T06:50:13.268Z,7.1
2022-11-27T06:51:15.183Z,7
2022-11-27T06:52:17.166Z,7
2022-11-27T06:53:18.139Z,7
2022-11-27T06:54:19.217Z,7
2022-11-27T06:55:20.238Z,7
2022-11-27T06:56:22.248Z,7
2022-11-27T06:57:23.625Z,7
2022-11-27T06:58:29.487Z,6.9
2022-11-27T06:59:27.639Z,6.8
2022-11-27T07:00:29.600Z,6.8
2022-11-27T07:01:31.292Z,6.7
2022-11-27T07:02:33.258Z,6.7
2022-11-27T07:03:34.303Z,6.7
2022-11-27T07:04:35.201Z,6.7
2022-11-27T07:05:36.259Z,6.6
2022-11-27T07:06:38.239Z,6.6
2022-11-27T07:07:43.727Z,6.4
2022-11-27T07:08:42.341Z,6.4
2022-11-27T07:09:44.286Z,6.4
2022-11-27T07:10:46.223Z,6.4
2022-11-27T07:11:48.199Z,6.4
2022-11-27T07:12:50.177Z,6.4
2022-11-27T07:13:51.161Z,6.4
2022-11-27T07:14:52.220Z,6.4
2022-11-27T07:15:54.226Z,6.3
2022-11-27T07:16:56.310Z,6.3
2022-11-27T07:17:58.240Z,6.3
2022-11-27T07:19:04.592Z,6.2
2022-11-27T07:20:01.729Z,6.2
2022-11-27T07:21:03.246Z,6.2
2022-11-27T07:22:04.146Z,6.1
2022-11-27T07:23:06.217Z,6
2022-11-27T07:24:08.199Z,6
2022-11-27T07:25:10.586Z,6
2022-11-27T07:26:12.239Z,6
2022-11-27T07:27:14.160Z,6
2022-11-27T07:28:18.951Z,6
2022-11-27T07:29:18.237Z,6.1
2022-11-27T07:30:19.239Z,6
2022-11-27T07:31:21.256Z,5.9
2022-11-27T07:32:23.174Z,5.8
2022-11-27T07:33:25.480Z,5.9
2022-11-27T07:34:27.753Z,5.8
2022-11-27T07:35:29.287Z,5.8
2022-11-27T07:36:31.213Z,5.8
2022-11-27T07:37:33.258Z,5.8
2022-11-27T07:38:35.398Z,5.8
2022-11-27T07:40:00.628Z,5.9
2022-11-27T07:40:39.233Z,5.9
2022-11-27T07:41:41.501Z,5.9
2022-11-27T07:42:43.157Z,6
2022-11-27T07:43:44.199Z,6
2022-11-27T07:44:45.685Z,6
2022-11-27T07:45:48.243Z,6
2022-11-27T07:46:49.238Z,6.1
2022-11-27T07:47:51.239Z,6.3
2022-11-27T07:48:53.864Z,6.4
2022-11-27T07:49:55.338Z,6.5
2022-11-27T07:50:57.347Z,6.5
2022-11-27T07:51:59.219Z,6.6
2022-11-27T07:53:01.258Z,6.6
2022-11-27T07:54:03.343Z,6.6
2022-11-27T07:55:05.700Z,6.5
2022-11-27T07:56:07.259Z,6.5
2022-11-27T07:57:08.538Z,6.4
2022-11-27T07:58:10.676Z,6.4
2022-11-27T07:59:12.780Z,6.5
2022-11-27T08:00:14.206Z,6.5
2022-11-27T08:01:15.274Z,6.5
2022-11-27T08:02:17.185Z,6.5
2022-11-27T08:03:18.978Z,6.4
2022-11-27T08:04:20.237Z,6.4
2022-11-27T08:05:21.267Z,6.4
2022-11-27T08:06:23.691Z,6.3
2022-11-27T08:07:25.188Z,6.3
2022-11-27T08:08:27.657Z,6.4
2022-11-27T08:09:29.403Z,6.5
2022-11-27T08:10:31.465Z,6.6
2022-11-27T08:11:33.383Z,6.6
2022-11-27T08:12:35.178Z,6.6
2022-11-27T08:13:37.157Z,6.7
2022-11-27T08:14:38.481Z,6.8
2022-11-27T08:15:40.203Z,6.9
2022-11-27T08:16:42.246Z,6.9
2022-11-27T08:17:44.204Z,7
2022-11-27T08:18:46.699Z,7.1
2022-11-27T08:19:48.199Z,7
2022-11-27T08:20:50.218Z,7
2022-11-27T08:21:52.315Z,7
2022-11-27T08:22:55.919Z,6.9
2022-11-27T08:23:55.226Z,6.8
2022-11-27T08:24:56.201Z,6.9
2022-11-27T08:25:57.215Z,7
2022-11-27T08:26:58.192Z,7.1
2022-11-27T08:27:59.193Z,7.2
2022-11-27T08:29:00.191Z,7.3
2022-11-27T08:30:01.287Z,7.3
2022-11-27T08:31:03.226Z,7.3
2022-11-27T08:32:04.191Z,7.4
2022-11-27T08:33:05.281Z,7.4
2022-11-27T08:34:07.180Z,7.4
2022-11-27T08:35:09.229Z,7.5
2022-11-27T08:36:15.078Z,7.5
2022-11-27T08:37:12.395Z,7.6
2022-11-27T08:38:14.206Z,7.7
2022-11-27T08:39:16.269Z,7.7
2022-11-27T08:40:18.242Z,7.8
2022-11-27T08:41:19.623Z,7.7
2022-11-27T08:42:21.480Z,7.6
2022-11-27T08:43:23.239Z,7.3
2022-11-27T08:44:25.259Z,7.1
2022-11-27T08:45:26.411Z,7.1
2022-11-27T08:46:28.939Z,7
2022-11-27T08:47:30.332Z,7.1
2022-11-27T08:48:32.277Z,7.1
2022-11-27T08:49:34.218Z,7.2
2022-11-27T08:50:36.220Z,7.3
2022-11-27T08:51:38.245Z,7.4
2022-11-27T08:52:39.362Z,7.4
2022-11-27T08:53:40.179Z,7.4
2022-11-27T08:54:41.506Z,7.4
2022-11-27T08:55:42.302Z,7.4
2022-11-27T08:56:44.275Z,7.3
2022-11-27T08:57:46.184Z,7.4
2022-11-27T08:58:48.340Z,7.4
2022-11-27T08:59:50.271Z,7.3
2022-11-27T09:00:52.293Z,7.4
2022-11-27T09:01:54.319Z,7.4
2022-11-27T09:02:56.218Z,7.4
2022-11-27T09:03:58.273Z,7.5
2022-11-27T09:04:59.301Z,7.5
2022-11-27T09:06:00.246Z,7.5
2022-11-27T09:07:02.760Z,7.6
2022-11-27T09:08:05.394Z,7.6
2022-11-27T09:09:07.223Z,7.6
2022-11-27T09:10:09.259Z,7.6
2022-11-27T09:11:10.630Z,7.6
2022-11-27T09:12:12.483Z,7.7
2022-11-27T09:13:14.240Z,7.7
2022-11-27T09:14:15.206Z,7.7
2022-11-27T09:15:16.218Z,7.6
2022-11-27T09:16:18.376Z,7.5
2022-11-27T09:17:20.479Z,7.3
2022-11-27T09:18:22.258Z,7.2
2022-11-27T09:19:24.260Z,7.2
2022-11-27T09:20:26.252Z,7.1
2022-11-27T09:21:28.600Z,6.9
2022-11-27T09:22:30.273Z,7
2022-11-27T09:23:32.415Z,7.2
2022-11-27T09:24:34.342Z,7.3
2022-11-27T09:25:36.319Z,7.4
2022-11-27T09:26:38.256Z,7.4
2022-11-27T09:27:40.257Z,7.5
2022-11-27T09:28:42.260Z,7.6
2022-11-27T09:29:43.910Z,7.7
2022-11-27T09:30:45.518Z,7.7
2022-11-27T09:31:47.687Z,7.6
2022-11-27T09:32:49.621Z,7.5
2022-11-27T09:33:53.405Z,7.5
2022-11-27T09:34:55.962Z,7.4
2022-11-27T09:35:57.261Z,7.2
2022-11-27T09:36:59.299Z,7.1
2022-11-27T09:38:01.213Z,7.2
2022-11-27T09:39:03.742Z,7.2
2022-11-27T09:40:05.821Z,7.2
2022-11-27T09:41:08.678Z,7.3
2022-11-27T09:42:10.318Z,7.4
2022-11-27T09:43:12.279Z,7.3
2022-11-27T09:44:13.279Z,7.4
2022-11-27T09:45:14.759Z,7.4
2022-11-27T09:46:16.712Z,7.4
2022-11-27T09:47:18.443Z,7.4
2022-11-27T09:48:20.312Z,7.4
2022-11-27T09:49:22.462Z,7.4
2022-11-27T09:50:24.393Z,7.6
2022-11-27T09:51:26.359Z,7.7
2022-11-27T09:52:28.800Z,7.8
2022-11-27T09:53:30.466Z,7.9
2022-11-27T09:54:32.382Z,8
2022-11-27T09:55:34.824Z,8
2022-11-27T09:56:36.385Z,7.9
2022-11-27T09:57:38.345Z,7.8
2022-11-27T09:58:40.287Z,7.8
2022-11-27T09:59:41.543Z,7.9
2022-11-27T10:00:43.498Z,7.9
2022-11-27T10:01:50.501Z,7.9
2022-11-27T10:02:47.388Z,7.8
2022-11-27T10:03:49.292Z,7.8
2022-11-27T10:05:12.713Z,7.9
2022-11-27T10:05:53.258Z,7.8
2022-11-27T10:06:55.319Z,7.8
2022-11-27T10:07:59.666Z,7.7
2022-11-27T10:08:59.293Z,7.6
2022-11-27T10:10:00.400Z,7.6
2022-11-27T10:11:01.265Z,7.5
2022-11-27T10:12:03.438Z,7.4
2022-11-27T10:13:05.273Z,7.5
2022-11-27T10:14:07.278Z,7.5
2022-11-27T10:15:09.907Z,7.3
2022-11-27T10:16:12.461Z,7.2
2022-11-27T10:17:14.321Z,7.3
2022-11-27T10:18:16.547Z,7.2
2022-11-27T10:19:19.288Z,7.1
2022-11-27T10:20:20.318Z,7.1
2022-11-27T10:21:22.279Z,7.1
2022-11-27T10:22:24.676Z,7.1
2022-11-27T10:23:26.331Z,7.2
2022-11-27T10:24:28.756Z,7.2
2022-11-27T10:25:30.419Z,7.2
2022-11-27T10:26:32.325Z,7.3
2022-11-27T10:27:34.623Z,7.3
2022-11-27T10:28:36.282Z,7.3
2022-11-27T10:29:39.546Z,7.2
2022-11-27T10:30:41.418Z,7.3
2022-11-27T10:31:43.343Z,7.2
2022-11-27T10:33:00.713Z,7.3
2022-11-27T10:33:47.294Z,7.3
2022-11-27T10:34:50.224Z,7.3
2022-11-27T10:35:51.297Z,7.5
2022-11-27T10:36:54.679Z,7.6
2022-11-27T10:37:56.497Z,7.7
2022-11-27T10:38:58.728Z,7.7
2022-11-27T10:40:00.361Z,7.8
2022-11-27T10:41:01.383Z,7.9
2022-11-27T10:42:04.184Z,8
2022-11-27T10:43:05.695Z,8
2022-11-27T10:44:07.739Z,8.1
2022-11-27T10:45:09.340Z,8
2022-11-27T10:46:11.576Z,7.9
2022-11-27T10:47:13.335Z,7.9
2022-11-27T10:48:15.323Z,7.9
2022-11-27T10:49:16.291Z,7.9
2022-11-27T10:50:17.278Z,7.9
2022-11-27T10:51:19.257Z,8
2022-11-27T10:52:21.538Z,8
2022-11-27T10:53:23.320Z,7.8
2022-11-27T10:54:25.418Z,7.8
2022-11-27T10:55:27.837Z,7.9
2022-11-27T10:56:30.110Z,7.9
2022-11-27T10:57:31.252Z,7.8
2022-11-27T10:58:33.258Z,7.6
2022-11-27T10:59:35.398Z,7.5
2022-11-27T11:00:37.317Z,7.4
2022-11-27T11:01:39.398Z,7.4
2022-11-27T11:02:41.308Z,7.4
2022-11-27T11:03:42.307Z,7.3
2022-11-27T11:04:43.338Z,7.3
2022-11-27T11:06:11.957Z,7.3
2022-11-27T11:06:46.308Z,7.2
2022-11-27T11:07:48.486Z,7.1
2022-11-27T11:08:51.461Z,7.1
2022-11-27T11:09:53.366Z,7.1
2022-11-27T11:10:55.319Z,7.1
2022-11-27T11:11:57.435Z,7.2
2022-11-27T11:13:00.180Z,7.2
2022-11-27T11:14:02.080Z,7.3
2022-11-27T11:15:03.350Z,7.3
2022-11-27T11:16:05.370Z,7.3
2022-11-27T11:17:07.572Z,7.4
2022-11-27T11:18:09.339Z,7.5
2022-11-27T11:19:11.316Z,7.6
2022-11-27T11:20:12.318Z,7.7
2022-11-27T11:21:13.561Z,7.6
2022-11-27T11:22:15.679Z,7.7
2022-11-27T11:23:17.359Z,7.7
2022-11-27T11:24:19.278Z,7.7
2022-11-27T11:25:21.384Z,7.6
2022-11-27T11:26:23.341Z,7.6
2022-11-27T11:27:26.135Z,7.6
2022-11-27T11:28:27.280Z,7.7
2022-11-27T11:29:29.281Z,7.7
2022-11-27T11:30:31.332Z,7.8
2022-11-27T11:31:33.409Z,7.8
2022-11-27T11:32:36.358Z,7.7
2022-11-27T11:33:38.347Z,7.6
2022-11-27T11:34:40.551Z,7.3
2022-11-27T11:35:42.726Z,7.1
2022-11-27T11:36:44.339Z,7
2022-11-27T11:37:46.268Z,7.1
2022-11-27T11:38:47.363Z,7.2
2022-11-27T11:39:49.478Z,7.4
2022-11-27T11:40:51.340Z,7.5
2022-11-27T11:41:53.318Z,7.7
2022-11-27T11:42:56.571Z,7.7
2022-11-27T11:43:58.320Z,7.7
2022-11-27T11:45:00.299Z,7.6
2022-11-27T11:46:01.329Z,7.6
2022-11-27T11:47:03.451Z,7.7
2022-11-27T11:48:05.479Z,7.7
2022-11-27T11:49:07.405Z,7.8
2022-11-27T11:50:09.322Z,7.7
2022-11-27T11:51:11.330Z,7.5
2022-11-27T11:52:13.320Z,7.6
2022-11-27T11:53:15.371Z,7.7
2022-11-27T11:54:17.299Z,7.7
2022-11-27T11:55:19.360Z,7.7
2022-11-27T11:56:21.276Z,7.8
2022-11-27T11:57:22.301Z,7.9
2022-11-27T11:58:24.484Z,7.9
2022-11-27T11:59:26.378Z,7.9
2022-11-27T12:00:31.552Z,7.9
2022-11-27T12:01:30.760Z,8
2022-11-27T12:02:32.560Z,7.9
2022-11-27T12:03:34.319Z,7.9
2022-11-27T12:04:36.390Z,8
2022-11-27T12:05:38.377Z,8.1
2022-11-27T12:06:40.346Z,8.2
2022-11-27T12:07:41.426Z,8.3
2022-11-27T12:08:43.379Z,8.4
2022-11-27T12:09:45.901Z,8.3
2022-11-27T12:10:47.412Z,8.3
2022-11-27T12:11:49.300Z,8.4
2022-11-27T12:12:50.358Z,8.4
2022-11-27T12:13:51.523Z,8.4
2022-11-27T12:14:53.259Z,8.3
2022-11-27T12:15:55.316Z,8.3
2022-11-27T12:16:57.346Z,8.3
2022-11-27T12:17:59.319Z,8.1
2022-11-27T12:19:01.370Z,8
2022-11-27T12:20:03.388Z,7.9
2022-11-27T12:21:05.344Z,7.8
2022-11-27T12:22:07.310Z,7.9
2022-11-27T12:23:09.298Z,8
2022-11-27T12:25:49.068Z,8
2022-11-27T12:26:53.381Z,8.1
2022-11-27T12:27:57.626Z,8.2
2022-11-27T12:29:03.324Z,8.2
2022-11-27T12:30:05.859Z,8.3
2022-11-27T12:31:07.417Z,8.3
2022-11-27T12:32:09.360Z,8.3
2022-11-27T12:33:11.882Z,8.3
2022-11-27T12:34:13.567Z,8.3
2022-11-27T12:35:16.490Z,8.5
2022-11-27T12:36:18.381Z,8.5
2022-11-27T12:37:20.726Z,8.5
2022-11-27T12:38:22.403Z,8.5
2022-11-27T12:39:24.429Z,8.3
2022-11-27T12:40:26.610Z,8.2
2022-11-27T12:41:28.405Z,8
2022-11-27T12:42:30.866Z,8.2
2022-11-27T12:43:32.326Z,8.2
2022-11-27T12:44:34.459Z,8.3
2022-11-27T12:45:37.072Z,8.3
2022-11-27T12:46:38.392Z,8.3
2022-11-27T12:47:40.568Z,8.3
2022-11-27T12:48:42.367Z,8.3
2022-11-27T12:49:44.364Z,8.3
2022-11-27T12:50:46.484Z,8.3
2022-11-27T12:51:48.351Z,8.2
2022-11-27T12:52:50.328Z,8.1
2022-11-27T12:53:53.663Z,8.1
2022-11-27T12:54:55.491Z,8.1
2022-11-27T12:55:57.487Z,7.8
2022-11-27T12:56:59.392Z,7.6
2022-11-27T12:58:00.373Z,7.5
2022-11-27T12:59:01.326Z,7.5
2022-11-27T13:00:02.510Z,7.5
2022-11-27T13:01:04.412Z,7.5
2022-11-27T13:02:06.749Z,7.4
2022-11-27T13:03:08.366Z,7.3
2022-11-27T13:04:10.628Z,7.4
2022-11-27T13:05:12.412Z,7.3
2022-11-27T13:06:14.325Z,7.1
2022-11-27T13:07:17.094Z,7.2
2022-11-27T13:08:18.361Z,7.3
2022-11-27T13:09:19.363Z,7.4
2022-11-27T13:10:20.341Z,7.6
2022-11-27T13:11:21.457Z,7.6
2022-11-27T13:12:23.413Z,7.5
2022-11-27T13:13:25.316Z,7.6
2022-11-27T13:14:27.346Z,7.7
2022-11-27T13:15:29.485Z,7.7
2022-11-27T13:16:31.472Z,7.9
2022-11-27T13:17:33.495Z,8
2022-11-27T13:18:35.344Z,8.1
2022-11-27T13:19:36.387Z,8.2
2022-11-27T13:20:37.366Z,8.2
2022-11-27T13:21:38.325Z,8.2
2022-11-27T13:22:40.365Z,8.3
2022-11-27T13:23:41.319Z,8.3
2022-11-27T13:24:42.756Z,8.2
2022-11-27T13:25:44.404Z,8.2
2022-11-27T13:26:46.352Z,8.2
2022-11-27T13:27:47.784Z,8.1
2022-11-27T13:28:49.350Z,8.1
2022-11-27T13:29:51.353Z,8.1
2022-11-27T13:30:53.544Z,7.9
2022-11-27T13:31:55.415Z,7.9
2022-11-27T13:32:57.373Z,7.9
2022-11-27T13:33:58.390Z,7.9
2022-11-27T13:34:59.408Z,7.9
2022-11-27T13:36:00.425Z,7.8
2022-11-27T13:37:02.395Z,7.8
2022-11-27T13:38:04.726Z,7.8
2022-11-27T13:39:06.624Z,7.9
2022-11-27T13:40:08.472Z,8
2022-11-27T13:41:10.364Z,8
2022-11-27T13:42:12.385Z,8.1
2022-11-27T13:43:13.393Z,8.1
2022-11-27T13:44:15.688Z,8.2
2022-11-27T13:45:17.423Z,8.2
2022-11-27T13:46:19.569Z,8.3
2022-11-27T13:47:21.380Z,8.3
2022-11-27T13:48:23.460Z,8.3
2022-11-27T13:49:25.353Z,8.4
2022-11-27T13:50:31.212Z,8.3
2022-11-27T13:51:29.367Z,8.3
2022-11-27T13:52:31.308Z,8.3
2022-11-27T13:53:33.409Z,8.4
2022-11-27T13:54:35.432Z,8.4
2022-11-27T13:55:37.424Z,8.5
2022-11-27T13:56:39.403Z,8.5
2022-11-27T13:57:41.584Z,8.5
2022-11-27T13:58:43.564Z,8.6
2022-11-27T13:59:45.827Z,8.5
2022-11-27T14:00:47.872Z,8.5
2022-11-27T14:01:49.547Z,8.4
2022-11-27T14:02:51.497Z,8.4
2022-11-27T14:03:53.843Z,8.4
2022-11-27T14:04:56.526Z,8.5
2022-11-27T14:05:57.595Z,8.5
2022-11-27T14:06:59.357Z,8.5
2022-11-27T14:08:01.521Z,8.5
2022-11-27T14:09:04.865Z,8.5
2022-11-27T14:10:06.587Z,8.5
2022-11-27T14:11:08.789Z,8.5
2022-11-27T14:12:10.361Z,8.5
2022-11-27T14:13:12.411Z,8.4
2022-11-27T14:14:14.483Z,8.4
2022-11-27T14:15:16.401Z,8.2
2022-11-27T14:16:18.390Z,8.1
2022-11-27T14:17:20.545Z,8.1
2022-11-27T14:18:22.905Z,8.2
2022-11-27T14:19:27.173Z,8.2
2022-11-27T14:20:26.673Z,8.2